AirNav   Air Wisconsin Up To $57,000 Bonus
 
 799 users online  

KJSD Sikorsky Heliport
Stratford, Connecticut, USA

GOING TO STRATFORD?


FAA INFORMATION EFFECTIVE 08 OCTOBER 2020

Location

FAA Identifier: JSD
Lat/Long: 41-15-12.2300N 073-05-21.9900W
41-15.203833N 073-05.366500W
41.2533972,-73.0894417
(estimated)
Elevation: 20 ft. / 6 m (estimated)
Variation: 13W (1980)
From city: 3 miles N of STRATFORD, CT
Time zone: UTC -4 (UTC -5 during Standard Time)
Zip code: 06614

Heliport Operations

Heliport use: Private use. Permission required prior to landing
Activation date: 09/1960
Control tower: yes
ARTCC: NEW YORK CENTER
FSS: BRIDGEPORT FLIGHT SERVICE STATION
NOTAMs facility: FDC (NOTAM-D service not available)
Attendance: MON-FRI 0800-SS, ALL SAT-SUN 0800-SS
AS RQRD.
Wind indicator: yes
Segmented circle: no
Lights: FOR PERIMETER LGTS CALL 203-386-4405.

Heliport Communications

SIKORSKY TOWER: 133.6 257.725 125.2 [0800-SS MON-FRI, 0800-SS SAT-SUN AS REQ]
RADAR: 123.55 326.725
WX ASOS at BDR (6 nm S): 119.15 (203-381-9453)
WX ASOS at HVN (9 nm E): PHONE 203-466-6205
WX AWOS-3PT at OXC (14 nm N): 132.975 (203-262-1190)
WX ASOS at DXR (19 nm W): 127.75 (203-791-8227)
WX ASOS at MMK (19 nm NE): 134.925 (203-639-9405)

Nearby radio navigation aids

VOR radial/distance  VOR name  Freq  Var
BDRr028/5.8BRIDGEPORT VOR/DME108.8012W
MADr272/18.3MADISON VOR/DME110.4013W
CMKr106/22.2CARMEL VOR/DME116.6012W
CCCr339/23.5CALVERTON VOR/DME117.2013W
DPKr031/29.3DEER PARK VOR/DME117.7012W
HFDr239/33.7HARTFORD VOR/DME114.9013W
PWLr155/38.6PAWLING VOR/DME114.3012W

 
NDB name  Hdg/Dist  Freq  Var  ID
BABYLON035/37.327514WBBN -... -... -.

Heliport Services

Fuel available: A
Airframe service: MINOR
Powerplant service: MINOR

Runway Information

Helipad H2

Dimensions: 1300 x 100 ft. / 396 x 30 m
Surface: asphalt
Traffic pattern: leftleft
Obstructions: hangars, lighted
PAD FENCED.

Helipad H1

Dimensions: 150 x 150 ft. / 46 x 46 m
Surface: asphalt
Runway edge lights: low intensity
Latitude: 41-15.203833N
Longitude: 073-05.366500W
Elevation: 20.0 ft.
Traffic pattern: leftleft
Obstructions: bridge-l
PAD FENCED.

Heliport Ownership and Management from official FAA records

Ownership: Privately-owned
Owner: SIKORSKY AIRCRAFT
6900 MAIN STREET
STRATFORD, CT 06614
Phone 203-386-3873
Manager: THEODORE POCWIERZ, JR.
6900 MAIN STREET
STRATFORD, CT 06614
Phone 203-386-3873

Heliport Operational Statistics

Aircraft based on the field: 1
Helicopters: 1
    

Additional Remarks

EXTSV HEL TESTING WI 15 NMR SFC TO 10000 FT DLY.
EXTSV BIRD ACTVTY ON & INVOF HELI.
FOR CD CTC NEW YORK APCH AT 516-683-2963.

Instrument Procedures

There are no published instrument procedures at KJSD.

Some nearby airports with instrument procedures:

KBDR - Igor I Sikorsky Memorial Airport (6 nm S)
KHVN - Tweed-New Haven Airport (9 nm E)
KOXC - Waterbury-Oxford Airport (14 nm N)
KDXR - Danbury Municipal Airport (19 nm W)
KMMK - Meriden Markham Municipal Airport (19 nm NE)
 
Loc | Ops | Rwys | IFR | FBO | Links
Com | Nav | Svcs | Stats | Notes

Silver City Flying Club
 
Area around KJSD (Sikorsky Heliport)
 
Road maps at: MapQuest Bing Google
 
Aerial photo
WARNING: Photo may not be current or correct
Aerial photo of KJSD (Sikorsky Heliport)
Photo taken 19-Aug-2005

Do you have a better or more recent aerial photo of Sikorsky Heliport that you would like to share? If so, please send us your photo.

 
Sectional chart

 
Airport distance calculator
Flying to Sikorsky Heliport? Find the distance to fly.

From to KJSD

Sunrise and sunset
Times for 20-Oct-2020
 Local
(UTC-4)
 Zulu
(UTC)
Morning civil twilight06:4410:44
Sunrise07:1211:12
Sunset18:0222:02
Evening civil twilight18:3022:30

Current date and time
Zulu (UTC)  20-Oct-2020 11:59:28
Local (UTC-4)  20-Oct-2020 07:59:28
 
METAR
KBDR 
6nm S 
201152Z 00000KT 10SM OVC009 15/14 A3026 RMK AO2 SLP247 60000 T01500139 10156 20122 53004
KHVN 
10nm E 
201153Z 00000KT 8SM OVC010 16/15 A3026 RMK AO2 LTG DSNT SE SLP245 T01560150 10161 20128 53002
KOXC 
13nm N 
201151Z 14005KT 3/4SM BR OVC003 14/14 A3026 RMK AO2 SLP258 T01390139 10139 20111 55002
KDXR 
19nm W 
201153Z 00000KT 6SM BR OVC005 13/13 A3026 RMK AO2 SLP246 T01330128 10133 20083 53002
KMMK 
20nm NE 
201153Z AUTO 14003KT 10SM SCT008 OVC013 12/11 A3025 RMK AO2 SLP243 T01170106 10117 20083 58001
TAF
KBDR 
6nm S 
201139Z 2012/2112 14004KT P6SM VCSH BKN009 BKN015 FM201500 17007KT 4SM -DZ BR BKN008 OVC012 FM201800 15005KT 4SM -DZ BR OVC015 FM202200 VRB03KT 4SM BR OVC010 FM210000 VRB02KT 3SM BR BKN006 OVC010
NOTAMs
Click for the latest NOTAMs
NOTAMs are issued by the DoD/FAA and will open in a separate window not controlled by AirNav.

 

 
 

Would you like to see your business listed on this page?

 If your business provides an interesting product or service to pilots, flight crews, aircraft, or users of the Sikorsky Heliport, you should consider listing it here.  To start the listing process, click on the button below
 
Add a business
 

Other Pages about Sikorsky Heliport

Update a link
 
Copyright © AirNav, LLC. All rights reserved. Privacy Policy  Contact